This is the latest recevied weather packets stored in our database for station/object KD2SIG. If no packets are shown the sender has not sent any weather packets the latest 1 day(s).
| Time | Temp. | Humidity | Pressure | Rain* | Wind** | Luminosity | Snow |
|---|---|---|---|---|---|---|---|
| 1777975833 | 15° C | 86% | 1002.1 hPa | 0 mm | 0 m/s | 0 W/m² | - |
| 1777975531 | 15° C | 86% | 1002.3 hPa | 3.05 mm | 0.89 m/s, 258° | 0 W/m² | - |
| 1777975227 | 15° C | 85% | 1002.9 hPa | 6.1 mm | 0.89 m/s, 216° | 0 W/m² | - |
| 1777974923 | 15° C | 84% | 1002.5 hPa | 1.27 mm | 0.45 m/s, 224° | 0 W/m² | - |
| 1777974620 | 15° C | 84% | 1002.7 hPa | 0 mm | 0.45 m/s, 256° | 0 W/m² | - |
| 1777974317 | 15° C | 85% | 1002.5 hPa | 0 mm | 0.45 m/s, 205° | 0 W/m² | - |
| 1777974013 | 15° C | 85% | 1002.7 hPa | 0 mm | 0 m/s | 0 W/m² | - |
| 1777973709 | 15° C | 84% | 1002.7 hPa | 0 mm | 0 m/s | 0 W/m² | - |
| 1777973407 | 15° C | 83% | 1002.8 hPa | 0 mm | 0 m/s | 0 W/m² | - |
| 1777973104 | 15.56° C | 83% | 1002.7 hPa | 0 mm | 0.45 m/s, 250° | 0 W/m² | - |
| 1777972802 | 15.56° C | 82% | 1003 hPa | 1.78 mm | 1.34 m/s, 233° | 0 W/m² | - |
| 1777972499 | 15.56° C | 81% | 1002.9 hPa | 4.83 mm | 0.45 m/s, 269° | 0 W/m² | - |
| 1777972197 | 16.11° C | 79% | 1003 hPa | 3.05 mm | 0.45 m/s, 239° | 0 W/m² | - |
| 1777971895 | 17.22° C | 73% | 1002.5 hPa | 0 mm | 1.34 m/s, 236° | 0 W/m² | - |
| 1777971592 | 17.78° C | 70% | 1002.5 hPa | 0 mm | 0.89 m/s, 227° | 0 W/m² | - |
| 1777971290 | 17.78° C | 68% | 1002.7 hPa | 0 mm | 3.13 m/s, 215° | 0 W/m² | - |
| 1777970988 | 17.78° C | 68% | 1002.5 hPa | 0 mm | 0.89 m/s, 192° | 0 W/m² | - |
| 1777970686 | 17.78° C | 69% | 1002.9 hPa | 0 mm | 1.34 m/s, 21° | 0 W/m² | - |
| 1777970383 | 17.78° C | 69% | 1002.9 hPa | 0 mm | 2.68 m/s, 207° | 0 W/m² | - |
| 1777970080 | 17.78° C | 67% | 1002.9 hPa | 0 mm | 1.34 m/s, 226° | 0 W/m² | - |
| 1777969777 | 18.33° C | 64% | 1002.8 hPa | 0 mm | 3.13 m/s, 220° | 0 W/m² | - |
| 1777969472 | 18.33° C | 63% | 1002.7 hPa | 0 mm | 2.68 m/s, 246° | 0 W/m² | - |
| 1777969170 | 18.33° C | 63% | 1002.6 hPa | 0 mm | 2.24 m/s, 231° | 0 W/m² | - |
| 1777968867 | 18.33° C | 64% | 1002.8 hPa | 0 mm | 0.45 m/s, 237° | 0 W/m² | - |
| 1777968563 | 18.33° C | 63% | 1002.8 hPa | 0 mm | 1.79 m/s, 235° | 0 W/m² | - |
* Rain latest hour (hover to see other rain measurements)
** Current wind speed in m/s (hover to see current wind gust speed)